Time;durP1;ratioP1;P1;durP2;ratioP2;P2;SDS_P1;SDS_P2;PMS_P1;PMS_P2;Temp;Humidity;BMP_temperature;BMP_pressure;BME280_temperature;BME280_humidity;BME280_pressure;Samples;Min_cycle;Max_cycle;Signal;HPM_P1;HPM_P2
2023/04/04 00:03:36;;;;;;;3.55;1.20;;;;;;;16.84;47.13;97104.31;10345078;28;20046;-31
2023/04/04 00:08:36;;;;;;;3.37;1.33;;;;;;;16.72;47.35;97100.81;10342668;28;20042;-32
2023/04/04 00:13:37;;;;;;;2.37;1.13;;;;;;;16.65;47.62;97099.03;10337792;28;20046;-31
2023/04/04 00:18:38;;;;;;;2.35;1.20;;;;;;;16.66;47.32;97090.59;10345188;28;20109;-31
2023/04/04 00:23:38;;;;;;;1.77;1.10;;;;;;;16.66;47.70;97094.78;10332934;28;20038;-31
2023/04/04 00:28:38;;;;;;;1.83;1.20;;;;;;;16.62;46.64;97098.97;10351693;28;20034;-31
2023/04/04 00:33:39;;;;;;;1.00;0.90;;;;;;;16.65;46.54;97093.97;10360153;28;20088;-32
2023/04/04 00:38:39;;;;;;;2.40;1.00;;;;;;;16.66;46.97;97088.06;10350980;28;20030;-34
2023/04/04 00:43:40;;;;;;;1.63;1.10;;;;;;;16.62;47.56;97083.78;10351102;28;20042;-33
2023/04/04 00:48:41;;;;;;;1.98;1.17;;;;;;;16.63;47.54;97084.66;10351792;28;20473;-34
2023/04/04 00:53:45;;;;;;;1.98;1.33;;;;;;;16.62;47.49;97076.22;10335600;28;20031;-33
2023/04/04 00:58:46;;;;;;;2.08;1.25;;;;;;;16.63;47.29;97066.97;10333837;28;20422;-33
2023/04/04 01:03:48;;;;;;;1.33;1.05;;;;;;;16.63;47.62;97080.44;10358496;28;20040;-33
2023/04/04 01:08:51;;;;;;;1.23;1.13;;;;;;;16.74;47.76;97078.91;10340080;28;20056;-33
2023/04/04 01:13:51;;;;;;;1.52;1.00;;;;;;;16.78;47.67;97076.44;10354440;28;20407;-33
2023/04/04 01:18:53;;;;;;;2.22;1.25;;;;;;;16.79;46.93;97079.78;10334886;28;20034;-33
2023/04/04 01:24:02;;;;;;;1.05;0.90;;;;;;;16.67;47.23;97077.97;10332901;28;20034;-34
2023/04/04 01:29:29;;;;;;;1.80;1.17;;;;;;;16.62;47.31;97073.69;10340821;28;20038;-33
2023/04/04 01:34:43;;;;;;;1.88;1.52;;;;;;;16.65;47.05;97066.16;10333778;28;20070;-33
2023/04/04 01:39:50;;;;;;;1.67;1.23;;;;;;;16.64;46.89;97059.41;10319701;28;20030;-33
2023/04/04 01:44:55;;;;;;;1.42;1.08;;;;;;;16.59;47.54;97050.91;10330735;28;20032;-33
2023/04/04 01:49:57;;;;;;;1.15;0.88;;;;;;;16.62;46.87;97058.50;10338624;28;20030;-33
2023/04/04 01:54:58;;;;;;;1.38;1.10;;;;;;;16.63;46.40;97062.75;10323944;28;20030;-34
2023/04/04 01:59:58;;;;;;;1.20;1.10;;;;;;;16.67;45.45;97051.84;10346894;28;20032;-32
2023/04/04 02:04:58;;;;;;;3.03;1.10;;;;;;;16.64;46.59;97056.88;10360718;28;20315;-33
2023/04/04 02:10:00;;;;;;;1.20;1.03;;;;;;;16.63;46.76;97055.16;10335212;28;20034;-33
2023/04/04 02:15:00;;;;;;;1.48;1.10;;;;;;;16.64;46.22;97045.91;10307031;28;20046;-32
2023/04/04 02:20:01;;;;;;;3.17;1.00;;;;;;;16.66;45.82;97051.81;10358473;28;20030;-33
2023/04/04 02:25:01;;;;;;;1.33;0.90;;;;;;;16.74;47.29;97053.63;10336749;28;20042;-33
2023/04/04 02:30:02;;;;;;;1.50;0.93;;;;;;;16.75;46.74;97053.63;10336577;28;20084;-33
2023/04/04 02:35:03;;;;;;;1.80;0.93;;;;;;;16.62;46.79;97043.34;10335007;28;20490;-33
2023/04/04 02:40:04;;;;;;;1.80;1.20;;;;;;;16.59;46.96;97050.91;10339950;28;20026;-33
2023/04/04 02:45:10;;;;;;;1.15;1.05;;;;;;;16.65;45.53;97047.59;10311421;28;20489;-33
2023/04/04 02:50:12;;;;;;;2.58;1.10;;;;;;;16.62;46.42;97043.34;10330894;28;20064;-33
2023/04/04 02:55:13;;;;;;;1.75;1.02;;;;;;;16.65;45.74;97033.28;10343603;28;20093;-33
2023/04/04 03:00:17;;;;;;;1.70;1.02;;;;;;;16.64;45.61;97041.72;10329076;28;20446;-33
2023/04/04 03:05:17;;;;;;;1.38;0.80;;;;;;;16.61;46.44;97036.59;10336080;28;20621;-33
2023/04/04 03:10:17;;;;;;;2.17;1.35;;;;;;;16.63;45.91;97040.00;10327234;28;20030;-33
2023/04/04 03:15:18;;;;;;;1.60;1.27;;;;;;;16.64;45.60;97035.78;10319625;28;20037;-33
2023/04/04 03:20:19;;;;;;;1.55;1.17;;;;;;;16.61;46.40;97040.81;10353375;28;20274;-33
2023/04/04 03:25:19;;;;;;;1.35;1.05;;;;;;;16.58;45.37;97036.56;10334199;28;20041;-33
2023/04/04 03:30:20;;;;;;;1.52;1.05;;;;;;;16.60;45.68;97039.97;10335847;28;20045;-33
2023/04/04 03:35:20;;;;;;;1.80;1.23;;;;;;;16.67;45.42;97042.56;10321292;28;20578;-33
2023/04/04 03:40:21;;;;;;;1.60;1.20;;;;;;;16.69;46.59;97032.47;10351895;28;20407;-33
2023/04/04 03:45:21;;;;;;;1.97;0.93;;;;;;;16.67;46.12;97039.22;10346035;28;20285;-33
2023/04/04 03:50:22;;;;;;;1.87;1.10;;;;;;;16.63;45.52;97034.94;10348171;28;20290;-32
2023/04/04 03:55:26;;;;;;;2.60;1.38;;;;;;;16.61;46.12;97036.59;10314801;28;20383;-33
2023/04/04 04:00:29;;;;;;;1.98;1.00;;;;;;;16.61;46.01;97034.06;10334456;28;20033;-33
2023/04/04 04:05:29;;;;;;;2.40;1.10;;;;;;;16.60;45.71;97039.97;10331184;28;20037;-33
2023/04/04 04:10:31;;;;;;;1.70;0.85;;;;;;;16.66;44.61;97045.09;10344126;28;20509;-33
2023/04/04 04:15:31;;;;;;;1.75;1.10;;;;;;;16.74;44.20;97048.56;10348542;28;20482;-33
2023/04/04 04:20:34;;;;;;;1.35;0.90;;;;;;;16.73;44.18;97051.94;10348930;28;20048;-33
2023/04/04 04:25:34;;;;;;;1.75;1.00;;;;;;;16.74;45.28;97046.03;10324942;28;20029;-33
2023/04/04 04:30:46;;;;;;;1.10;0.77;;;;;;;16.77;42.76;97048.59;10325279;28;20506;-33
2023/04/04 04:35:49;;;;;;;2.13;1.05;;;;;;;16.84;42.21;97050.38;10323239;28;20502;-33
2023/04/04 04:40:50;;;;;;;1.40;0.90;;;;;;;16.87;42.46;97060.50;10350185;28;20042;-33
2023/04/04 04:45:58;;;;;;;1.83;1.20;;;;;;;16.88;42.37;97047.03;10331950;28;20037;-33
2023/04/04 04:50:58;;;;;;;2.55;1.85;;;;;;;16.92;42.84;97058.91;10361806;28;20034;-34
2023/04/04 04:56:10;;;;;;;3.53;0.90;;;;;;;16.91;42.63;97068.16;10347100;28;20034;-33
2023/04/04 05:01:14;;;;;;;1.90;1.10;;;;;;;16.93;42.30;97060.59;10327559;28;20131;-32
2023/04/04 05:06:14;;;;;;;2.33;1.00;;;;;;;16.91;41.92;97059.72;10327525;28;20037;-32
2023/04/04 05:11:15;;;;;;;2.92;1.30;;;;;;;16.81;44.20;97063.00;10322374;28;20038;-33
2023/04/04 05:16:16;;;;;;;1.70;1.13;;;;;;;16.82;42.17;97070.56;10314089;28;20084;-33
2023/04/04 05:21:19;;;;;;;2.70;1.50;;;;;;;16.48;40.65;97069.28;10332023;28;20056;-32
2023/04/04 05:26:22;;;;;;;4.43;1.30;;;;;;;16.56;42.10;97068.56;10339766;28;20049;-33
2023/04/04 05:31:25;;;;;;;2.70;1.40;;;;;;;16.66;41.54;97070.38;10336855;28;20034;-33
2023/04/04 05:36:26;;;;;;;2.47;1.58;;;;;;;16.73;41.89;97076.34;10352904;28;20027;-34
2023/04/04 05:41:32;;;;;;;2.40;1.50;;;;;;;16.67;42.72;97077.13;10327946;28;20422;-33
2023/04/04 05:46:38;;;;;;;3.13;1.40;;;;;;;16.73;42.11;97091.53;10323775;28;20041;-32
2023/04/04 05:51:38;;;;;;;2.22;1.60;;;;;;;16.66;42.99;97098.19;10329880;28;20315;-33
2023/04/04 05:56:49;;;;;;;2.25;1.50;;;;;;;16.48;40.41;97097.94;10310412;28;20031;-32
2023/04/04 06:02:00;;;;;;;3.63;1.75;;;;;;;16.67;41.48;97094.81;10322348;28;20061;-32
2023/04/04 06:07:02;;;;;;;3.80;2.00;;;;;;;16.62;40.08;97096.44;10315450;28;20038;-33
2023/04/04 06:12:05;;;;;;;2.67;1.63;;;;;;;16.72;42.27;97098.28;10344408;28;20445;-33
2023/04/04 06:17:06;;;;;;;3.80;1.40;;;;;;;16.73;42.21;97096.56;10316494;28;20485;-33
2023/04/04 06:22:08;;;;;;;4.43;1.80;;;;;;;16.76;41.73;97097.47;10321807;28;20453;-33
2023/04/04 06:27:11;;;;;;;3.55;1.30;;;;;;;16.75;41.99;97104.19;10344099;28;20026;-32
2023/04/04 06:32:12;;;;;;;3.17;1.85;;;;;;;16.75;42.57;97100.84;10335544;28;20524;-33
2023/04/04 06:37:15;;;;;;;4.95;2.10;;;;;;;16.71;42.46;97088.97;10330170;28;20033;-33
2023/04/04 06:42:25;;;;;;;4.25;1.70;;;;;;;16.73;42.99;97098.28;10325667;28;20109;-33
2023/04/04 06:47:26;;;;;;;2.45;1.65;;;;;;;16.73;42.35;97091.53;10318064;28;20064;-33
2023/04/04 06:52:28;;;;;;;2.65;1.88;;;;;;;16.76;40.80;97092.41;10340650;28;20080;-33
2023/04/04 06:57:28;;;;;;;4.60;1.85;;;;;;;16.74;43.08;97084.81;10343824;28;20494;-33
2023/04/04 07:02:29;;;;;;;2.47;1.50;;;;;;;16.73;42.33;97073.00;10339701;28;20053;-33
2023/04/04 07:07:29;;;;;;;4.80;1.57;;;;;;;16.75;42.14;97070.50;10350644;28;20297;-33
2023/04/04 07:12:30;;;;;;;3.07;1.73;;;;;;;16.71;42.92;97061.16;10350459;28;20038;-32
2023/04/04 07:17:31;;;;;;;3.10;1.83;;;;;;;16.79;42.48;97064.63;10347510;28;20030;-33
2023/04/04 07:22:31;;;;;;;2.63;1.73;;;;;;;16.78;44.22;97068.00;10349741;28;20045;-33
2023/04/04 07:27:31;;;;;;;3.07;1.47;;;;;;;16.79;40.68;97057.91;10349861;28;20340;-33
2023/04/04 07:32:32;;;;;;;3.58;1.52;;;;;;;16.77;42.56;97061.25;10347280;28;20137;-33
2023/04/04 07:37:35;;;;;;;3.25;1.45;;;;;;;16.73;41.70;97057.00;10345549;28;20030;-33
2023/04/04 07:42:45;;;;;;;4.53;1.63;;;;;;;16.75;41.35;97065.44;10349001;28;20091;-33
2023/04/04 07:47:45;;;;;;;1.85;1.42;;;;;;;16.75;41.57;97065.44;10345189;28;20391;-33
2023/04/04 07:52:54;;;;;;;3.38;2.10;;;;;;;16.72;42.24;97062.88;10344740;28;20042;-33
2023/04/04 07:57:55;;;;;;;3.20;1.70;;;;;;;16.74;42.59;97066.28;10349434;28;20041;-32
2023/04/04 08:02:57;;;;;;;7.55;1.20;;;;;;;16.74;42.38;97063.75;10352681;28;20030;-33
2023/04/04 08:07:58;;;;;;;4.93;1.60;;;;;;;16.75;41.63;97062.91;10344534;28;20039;-33
2023/04/04 08:12:58;;;;;;;4.30;1.87;;;;;;;16.73;41.52;97057.00;10346318;28;20100;-33
2023/04/04 08:17:59;;;;;;;6.27;1.60;;;;;;;16.75;43.00;97062.91;10344810;28;20046;-33
2023/04/04 08:23:00;;;;;;;2.50;1.30;;;;;;;16.69;43.81;97062.81;10339874;28;20038;-32
2023/04/04 08:28:03;;;;;;;3.22;1.27;;;;;;;16.72;42.99;97056.97;10343009;28;20055;-33
2023/04/04 08:33:03;;;;;;;4.38;1.58;;;;;;;16.76;42.53;97059.53;10349816;28;20559;-33
2023/04/04 08:38:07;;;;;;;1.73;1.40;;;;;;;16.77;41.24;97059.56;10335590;28;20164;-33
2023/04/04 08:43:08;;;;;;;2.42;1.15;;;;;;;16.72;43.57;97064.53;10334508;28;20390;-33
2023/04/04 08:48:11;;;;;;;3.00;1.80;;;;;;;16.67;42.46;97066.16;10335132;28;20498;-33
2023/04/04 08:53:13;;;;;;;1.90;1.20;;;;;;;16.71;42.91;97063.69;10345872;28;20120;-33
2023/04/04 08:58:16;;;;;;;1.67;1.20;;;;;;;16.72;43.30;97060.34;10344331;28;20439;-33
2023/04/04 09:03:25;;;;;;;3.97;1.17;;;;;;;16.74;43.16;97068.78;10347883;28;20042;-32
2023/04/04 09:08:25;;;;;;;1.83;1.27;;;;;;;16.77;41.51;97058.72;10337448;28;20073;-34
2023/04/04 09:13:25;;;;;;;1.58;1.10;;;;;;;16.75;41.65;97061.22;10352265;28;20039;-33
2023/04/04 09:18:26;;;;;;;3.13;1.30;;;;;;;16.73;43.17;97052.75;10333389;28;20108;-33
2023/04/04 09:23:26;;;;;;;2.97;1.00;;;;;;;16.74;43.54;97049.41;10343140;28;20035;-32
2023/04/04 09:28:27;;;;;;;1.75;1.10;;;;;;;16.77;41.90;97056.19;10348950;28;20387;-33
2023/04/04 09:33:27;;;;;;;2.25;1.10;;;;;;;16.78;42.36;97051.16;10340265;28;20030;-33
2023/04/04 09:38:30;;;;;;;1.88;1.27;;;;;;;16.75;42.53;97050.25;10338942;28;20104;-33
2023/04/04 09:43:31;;;;;;;1.92;0.95;;;;;;;16.77;43.94;97058.72;10334343;28;20041;-32
2023/04/04 09:48:33;;;;;;;2.83;1.10;;;;;;;16.75;45.25;97062.91;10339672;28;20511;-33
2023/04/04 09:53:38;;;;;;;2.85;1.00;;;;;;;16.77;43.09;97057.88;10318291;28;20062;-33
2023/04/04 09:58:39;;;;;;;4.82;1.17;;;;;;;16.78;42.28;97070.50;10323044;28;20407;-33
2023/04/04 10:03:39;;;;;;;3.97;1.50;;;;;;;16.80;42.28;97063.78;10360307;22;20058;-24
2023/04/04 10:08:40;;;;;;;2.60;1.37;;;;;;;16.79;43.26;97062.09;10372328;28;20504;-25
2023/04/04 10:13:43;;;;;;;3.22;1.10;;;;;;;16.77;44.31;97062.94;10350654;28;20297;-24
2023/04/04 10:18:44;;;;;;;2.10;1.20;;;;;;;16.77;44.53;97059.56;10344265;28;20038;-25
2023/04/04 10:23:45;;;;;;;1.75;1.00;;;;;;;16.78;42.69;97058.75;10330107;28;20048;-25
2023/04/04 10:28:46;;;;;;;1.83;1.20;;;;;;;16.83;43.10;97056.25;10336062;28;20053;-24
2023/04/04 10:34:01;;;;;;;2.22;0.95;;;;;;;16.85;43.92;97059.66;10342848;28;20040;-24
2023/04/04 10:39:17;;;;;;;1.60;0.88;;;;;;;16.85;44.80;97052.06;10410535;23;20362;-29
2023/04/04 10:44:22;;;;;;;8.18;1.30;;;;;;;16.84;44.89;97055.44;10381423;28;20354;-29
2023/04/04 10:49:23;;;;;;;6.70;1.63;;;;;;;16.85;46.43;97041.94;10379198;28;20037;-28
2023/04/04 10:54:27;;;;;;;4.07;1.27;;;;;;;16.84;42.67;97047.84;10331279;28;20597;-28
2023/04/04 10:59:28;;;;;;;9.13;1.60;;;;;;;16.84;48.03;97038.56;10321517;28;20034;-28
2023/04/04 11:04:33;;;;;;;4.35;1.23;;;;;;;16.87;47.14;97035.22;10334950;28;20410;-29
2023/04/04 11:09:53;;;;;;;4.18;1.05;;;;;;;16.87;43.43;97020.91;10323990;28;20565;-28
2023/04/04 11:15:03;;;;;;;2.30;0.95;;;;;;;16.87;45.52;97020.03;10369648;23;20644;-24
2023/04/04 11:20:05;;;;;;;3.92;1.00;;;;;;;16.84;44.26;97010.75;10380725;28;20025;-24
2023/04/04 11:25:23;;;;;;;3.20;1.23;;;;;;;16.87;44.45;97010.78;10336071;28;20121;-24
2023/04/04 11:30:25;;;;;;;3.22;1.25;;;;;;;16.87;43.27;97013.31;10345834;28;20038;-24
2023/04/04 11:35:26;;;;;;;5.18;1.20;;;;;;;16.86;42.26;96998.13;10337585;28;20488;-24
2023/04/04 11:40:41;;;;;;;4.15;1.23;;;;;;;16.85;43.02;96986.31;10321311;28;20143;-24
2023/04/04 11:45:46;;;;;;;3.13;1.48;;;;;;;16.87;43.63;97000.69;10306854;28;20045;-24
2023/04/04 11:50:48;;;;;;;3.10;1.40;;;;;;;16.85;43.68;96993.91;10331035;28;20034;-23
2023/04/04 11:55:50;;;;;;;3.53;1.35;;;;;;;16.86;44.18;96998.13;10321705;28;20515;-25
2023/04/04 12:00:50;;;;;;;2.28;1.27;;;;;;;16.87;42.09;96994.75;10307985;28;20061;-25
2023/04/04 12:05:51;;;;;;;7.78;1.52;;;;;;;16.89;43.32;96993.13;10326170;28;20035;-24
2023/04/04 12:10:52;;;;;;;4.43;1.35;;;;;;;16.91;44.67;96999.03;10295368;28;20030;-25
2023/04/04 12:15:55;;;;;;;2.47;1.60;;;;;;;16.84;47.41;96984.63;10303169;28;20045;-24
2023/04/04 12:20:55;;;;;;;2.90;1.73;;;;;;;16.84;44.56;96994.75;10314156;28;20108;-25
2023/04/04 12:25:56;;;;;;;6.85;2.33;;;;;;;16.80;42.83;96990.47;10315529;28;20068;-24
2023/04/04 12:31:04;;;;;;;5.03;1.70;;;;;;;16.89;42.33;96985.53;10367292;28;20509;-24
2023/04/04 12:36:05;;;;;;;5.55;1.48;;;;;;;16.92;38.60;96988.09;10354305;28;20037;-25
2023/04/04 12:41:15;;;;;;;2.22;1.30;;;;;;;16.91;40.48;96986.41;10336374;28;20049;-26
2023/04/04 12:46:16;;;;;;;3.72;1.20;;;;;;;16.88;40.74;96988.88;10362018;28;20080;-24
2023/04/04 12:51:17;;;;;;;5.40;1.55;;;;;;;16.87;41.54;96985.50;10360903;28;20041;-25
2023/04/04 12:56:18;;;;;;;4.25;1.48;;;;;;;16.87;42.08;96975.41;10353386;28;20034;-24
2023/04/04 13:01:20;;;;;;;3.90;1.40;;;;;;;16.88;41.88;96976.22;10358931;28;20415;-24
2023/04/04 13:06:21;;;;;;;3.30;1.40;;;;;;;16.86;42.79;96975.38;10334827;28;20049;-24
2023/04/04 13:11:22;;;;;;;6.90;1.70;;;;;;;16.85;42.75;96971.16;10360829;28;20509;-23
2023/04/04 13:16:31;;;;;;;6.03;1.45;;;;;;;16.86;42.35;96973.69;10347606;28;20030;-24
2023/04/04 13:21:32;;;;;;;3.80;1.20;;;;;;;16.79;42.86;96958.44;10348221;28;20045;-24
2023/04/04 13:26:32;;;;;;;6.07;1.40;;;;;;;16.84;44.30;96961.88;10356166;28;20052;-24
2023/04/04 13:31:33;;;;;;;4.27;1.03;;;;;;;16.81;40.12;96951.75;10318625;28;20553;-24
2023/04/04 13:36:33;;;;;;;7.28;2.55;;;;;;;16.88;41.45;96953.47;10314130;28;20406;-25
2023/04/04 13:41:34;;;;;;;3.67;1.38;;;;;;;16.84;40.89;96941.63;10357173;28;20495;-25
2023/04/04 13:46:34;;;;;;;4.50;1.73;;;;;;;16.87;41.69;96934.94;10339997;28;20388;-25
2023/04/04 13:51:34;;;;;;;5.67;1.93;;;;;;;16.73;39.54;96944.88;10358860;28;20102;-25
2023/04/04 13:56:37;;;;;;;9.80;2.17;;;;;;;16.75;39.30;96946.59;10324491;28;20296;-24
2023/04/04 14:01:39;;;;;;;9.20;3.53;;;;;;;16.72;38.39;96939.00;10331946;28;20445;-24
2023/04/04 14:06:39;;;;;;;5.13;2.08;;;;;;;16.79;39.97;96940.72;10366652;28;20113;-25
2023/04/04 14:11:40;;;;;;;9.23;2.00;;;;;;;16.82;40.50;96933.19;10341844;28;20113;-24
2023/04/04 14:16:40;;;;;;;8.52;1.85;;;;;;;16.82;41.05;96935.72;10362845;28;20027;-25
2023/04/04 14:21:41;;;;;;;4.33;1.53;;;;;;;16.82;41.83;96935.72;10350567;28;20049;-24
2023/04/04 14:26:41;;;;;;;4.03;1.80;;;;;;;16.82;41.35;96920.56;10349118;28;20038;-24
2023/04/04 14:31:41;;;;;;;5.83;2.00;;;;;;;16.81;41.76;96921.41;10355237;28;20041;-25
2023/04/04 14:36:42;;;;;;;4.50;1.60;;;;;;;16.80;42.69;96924.72;10368071;28;20481;-24
2023/04/04 14:41:42;;;;;;;5.63;1.70;;;;;;;16.84;42.75;96924.78;10348406;28;20038;-24
2023/04/04 14:46:43;;;;;;;6.45;1.77;;;;;;;16.82;43.60;96926.44;10352014;28;20033;-25
2023/04/04 14:51:44;;;;;;;4.22;1.27;;;;;;;16.82;42.13;96920.56;10330243;28;20034;-25
2023/04/04 14:56:44;;;;;;;3.15;1.23;;;;;;;16.81;42.26;96924.75;10363149;28;20062;-24
2023/04/04 15:01:45;;;;;;;3.40;1.40;;;;;;;16.81;42.41;96923.91;10362242;28;20049;-24
2023/04/04 15:06:45;;;;;;;2.10;1.10;;;;;;;16.80;42.37;96922.19;10366149;28;20320;-24
2023/04/04 15:11:46;;;;;;;2.23;1.33;;;;;;;16.80;42.82;96922.19;10363682;28;20520;-25
2023/04/04 15:16:46;;;;;;;5.40;1.35;;;;;;;16.72;41.99;96913.72;10359807;28;20284;-25
2023/04/04 15:21:47;;;;;;;2.73;1.17;;;;;;;16.72;39.92;96923.84;10336958;28;20038;-24
2023/04/04 15:26:47;;;;;;;3.15;1.20;;;;;;;16.76;41.63;96930.59;10310093;28;20403;-24
2023/04/04 15:31:48;;;;;;;6.03;1.40;;;;;;;16.77;42.28;96927.25;10352773;28;20044;-25
2023/04/04 15:36:50;;;;;;;1.58;1.00;;;;;;;16.77;42.17;96921.34;10357660;28;20045;-25
2023/04/04 15:41:51;;;;;;;5.40;1.20;;;;;;;16.78;41.52;96927.25;10349026;28;20494;-24
2023/04/04 15:46:51;;;;;;;3.17;1.27;;;;;;;16.77;42.28;96925.56;10368076;28;20044;-24
2023/04/04 15:51:51;;;;;;;4.37;1.27;;;;;;;16.80;43.51;96935.69;10363676;28;20393;-25
2023/04/04 15:56:52;;;;;;;2.22;1.20;;;;;;;16.77;43.93;96922.19;10342500;28;20026;-25
2023/04/04 16:01:52;;;;;;;4.30;1.20;;;;;;;16.75;44.10;96923.84;10354387;28;20548;-25
2023/04/04 16:06:53;;;;;;;3.17;1.37;;;;;;;16.56;41.24;96937.16;10347858;28;20034;-24
2023/04/04 16:11:53;;;;;;;5.60;1.30;;;;;;;16.75;40.70;96934.78;10325812;28;20560;-25
2023/04/04 16:16:53;;;;;;;6.20;1.88;;;;;;;16.77;42.12;96936.53;10332695;28;20054;-24
2023/04/04 16:21:54;;;;;;;6.80;1.30;;;;;;;16.78;43.46;96931.47;10346310;28;20034;-25
2023/04/04 16:26:55;;;;;;;4.13;1.20;;;;;;;16.76;43.83;96925.53;10345676;28;20034;-24
2023/04/04 16:31:55;;;;;;;6.57;1.88;;;;;;;16.74;43.64;96932.28;10304504;28;20313;-24
2023/04/04 16:36:55;;;;;;;8.43;1.67;;;;;;;16.72;45.61;96918.78;10353051;28;20034;-24
2023/04/04 16:41:56;;;;;;;3.00;1.60;;;;;;;16.75;44.88;96924.69;10344470;28;20281;-24
2023/04/04 16:46:57;;;;;;;3.55;1.30;;;;;;;16.74;45.13;96922.16;10361410;28;20296;-24
2023/04/04 16:51:57;;;;;;;5.73;2.30;;;;;;;16.73;45.83;96915.41;10358292;28;20049;-25
2023/04/04 16:56:57;;;;;;;4.80;1.57;;;;;;;16.72;45.73;96921.31;10352187;28;20023;-25
2023/04/04 17:01:58;;;;;;;3.27;1.20;;;;;;;16.73;46.24;96915.41;10367088;28;20295;-24
2023/04/04 17:06:58;;;;;;;2.83;1.70;;;;;;;16.77;46.91;96917.97;10364156;28;20038;-24
2023/04/04 17:12:00;;;;;;;2.13;1.20;;;;;;;16.76;47.22;96920.50;10339497;28;20112;-24
2023/04/04 17:17:00;;;;;;;3.25;0.95;;;;;;;16.78;45.89;96922.22;10341164;28;20038;-24
2023/04/04 17:22:01;;;;;;;2.70;1.20;;;;;;;16.76;45.67;96925.53;10369895;28;20033;-25
2023/04/04 17:27:01;;;;;;;2.30;1.38;;;;;;;16.74;46.19;96923.00;10353269;28;20049;-25
2023/04/04 17:32:02;;;;;;;1.63;1.10;;;;;;;16.72;46.49;96926.38;10352840;28;20034;-25
2023/04/04 17:37:03;;;;;;;2.22;1.20;;;;;;;16.71;46.57;96929.69;10325588;28;20410;-24
2023/04/04 17:42:04;;;;;;;3.57;1.10;;;;;;;16.75;45.11;96926.38;10341964;28;20096;-24
2023/04/04 17:47:05;;;;;;;2.53;1.10;;;;;;;16.75;45.09;96929.75;10347633;28;20129;-25
2023/04/04 17:52:05;;;;;;;1.90;0.80;;;;;;;16.73;45.93;96943.22;10341431;28;20414;-25
2023/04/04 17:57:06;;;;;;;6.07;1.30;;;;;;;16.72;46.37;96940.66;10336260;28;20025;-25
2023/04/04 18:02:06;;;;;;;3.38;1.13;;;;;;;16.70;46.79;96940.66;10359745;28;20300;-23
2023/04/04 18:07:07;;;;;;;4.15;1.45;;;;;;;16.73;44.77;96943.22;10357763;28;20031;-24
2023/04/04 18:12:08;;;;;;;6.20;1.42;;;;;;;16.71;44.92;96947.38;10329549;28;20042;-23
2023/04/04 18:17:09;;;;;;;6.35;1.40;;;;;;;16.70;43.55;96942.34;10334570;23;20399;-30
2023/04/04 18:22:10;;;;;;;3.08;1.20;;;;;;;16.72;42.64;96961.75;10252264;28;20117;-30
2023/04/04 18:27:10;;;;;;;4.37;1.33;;;;;;;16.76;46.65;96976.09;10270564;28;20082;-30
2023/04/04 18:32:10;;;;;;;2.23;1.00;;;;;;;16.75;45.03;96971.88;10249948;29;20031;-30
2023/04/04 18:37:11;;;;;;;8.27;1.40;;;;;;;16.65;46.09;96967.56;10238088;29;20342;-30
2023/04/04 18:42:11;;;;;;;3.47;1.20;;;;;;;16.66;45.59;96974.31;10223372;29;20069;-30
2023/04/04 18:47:12;;;;;;;2.33;1.05;;;;;;;16.65;43.49;96976.81;10227218;29;20031;-30
2023/04/04 18:52:12;;;;;;;1.50;1.00;;;;;;;16.65;41.65;96982.75;10258127;23;20085;-25
2023/04/04 18:57:13;;;;;;;2.28;1.05;;;;;;;16.64;41.76;96985.25;10333404;28;20940;-25
2023/04/04 19:02:13;;;;;;;4.03;1.48;;;;;;;16.64;41.27;96990.28;10366612;28;20034;-26
2023/04/04 19:07:20;;;;;;;5.07;1.17;;;;;;;16.66;41.34;97003.78;10320312;28;20394;-25
2023/04/04 19:12:21;;;;;;;2.53;1.20;;;;;;;16.63;41.29;97009.66;10334733;28;20392;-25
2023/04/04 19:17:22;;;;;;;3.13;1.30;;;;;;;16.64;41.44;97013.03;10323960;28;20451;-26
2023/04/04 19:22:22;;;;;;;4.75;1.27;;;;;;;16.63;41.07;97014.72;10336613;28;20037;-25
2023/04/04 19:27:22;;;;;;;4.67;1.40;;;;;;;16.61;40.50;97016.38;10304544;28;20490;-25
2023/04/04 19:32:26;;;;;;;2.13;1.20;;;;;;;16.61;40.40;97021.44;10313530;28;20308;-25
2023/04/04 19:37:26;;;;;;;8.05;1.65;;;;;;;16.69;45.97;97029.13;10309643;28;20284;-25
2023/04/04 19:42:28;;;;;;;5.80;2.15;;;;;;;16.73;47.73;97029.19;10319570;28;20082;-25
2023/04/04 19:47:28;;;;;;;3.13;1.80;;;;;;;16.67;44.45;97034.16;10335525;28;20045;-25
2023/04/04 19:52:29;;;;;;;2.50;1.67;;;;;;;16.64;41.37;97026.53;10342062;28;20367;-25
2023/04/04 19:57:30;;;;;;;5.93;1.42;;;;;;;16.64;41.09;97024.03;10337397;28;20296;-25
2023/04/04 20:02:31;;;;;;;5.22;1.38;;;;;;;16.64;43.63;97030.75;10340768;28;20080;-25
2023/04/04 20:07:32;;;;;;;8.45;2.00;;;;;;;16.61;45.52;97028.19;10332748;28;20069;-26
2023/04/04 20:12:32;;;;;;;3.97;2.03;;;;;;;16.61;41.97;97035.78;10331199;28;20056;-25
2023/04/04 20:17:32;;;;;;;4.57;1.50;;;;;;;16.63;43.60;97034.09;10335127;28;20284;-26
2023/04/04 20:22:33;;;;;;;3.57;1.50;;;;;;;16.63;43.69;97029.88;10345254;28;20297;-25
2023/04/04 20:27:33;;;;;;;4.27;1.27;;;;;;;16.63;44.18;97034.09;10344667;28;20285;-25
2023/04/04 20:32:34;;;;;;;3.93;1.30;;;;;;;16.62;43.61;97033.25;10346678;28;20299;-26
2023/04/04 20:37:34;;;;;;;7.50;1.50;;;;;;;16.61;43.95;97034.06;10336460;28;20290;-25
2023/04/04 20:42:38;;;;;;;3.45;1.45;;;;;;;16.61;44.00;97041.66;10294469;28;20433;-25
2023/04/04 20:48:00;;;;;;;4.63;1.60;;;;;;;16.61;44.42;97045.88;10332245;28;20042;-25
2023/04/04 20:53:02;;;;;;;2.45;1.45;;;;;;;16.65;46.32;97047.59;10312206;28;20403;-25
2023/04/04 20:58:07;;;;;;;2.05;1.10;;;;;;;16.59;46.34;97033.22;10323491;28;20501;-25
2023/04/04 21:03:30;;;;;;;5.05;1.65;;;;;;;16.60;46.01;97050.06;10333666;28;20034;-25
2023/04/04 21:08:40;;;;;;;2.88;2.17;;;;;;;16.59;45.02;97050.91;10340585;28;20031;-25
2023/04/04 21:13:43;;;;;;;2.90;1.60;;;;;;;16.59;44.95;97045.00;10340488;28;20461;-25
2023/04/04 21:18:44;;;;;;;3.13;1.52;;;;;;;16.57;44.36;97050.03;10349092;28;20754;-25
2023/04/04 21:23:52;;;;;;;3.03;1.70;;;;;;;16.56;44.60;97040.78;10341007;28;20080;-25
2023/04/04 21:28:53;;;;;;;1.92;1.45;;;;;;;16.57;44.75;97049.19;10340035;28;20062;-25
2023/04/04 21:33:57;;;;;;;4.15;1.73;;;;;;;16.55;44.54;97045.78;10333078;28;20080;-25
2023/04/04 21:39:00;;;;;;;3.13;1.65;;;;;;;16.54;44.09;97052.50;10318130;28;20117;-25
2023/04/04 21:44:03;;;;;;;2.55;1.50;;;;;;;16.53;44.40;97053.34;10355736;28;20056;-25
2023/04/04 21:49:05;;;;;;;2.20;1.70;;;;;;;16.54;44.21;97055.03;10331579;28;20101;-25
2023/04/04 21:54:06;;;;;;;2.17;1.40;;;;;;;16.53;44.02;97053.34;10347254;28;20130;-25
2023/04/04 21:59:08;;;;;;;4.32;1.75;;;;;;;16.53;44.08;97055.88;10339153;28;20031;-25
2023/04/04 22:04:08;;;;;;;2.10;1.75;;;;;;;16.57;46.05;97050.03;10336658;28;20041;-25
2023/04/04 22:09:10;;;;;;;4.00;1.20;;;;;;;16.60;46.20;97044.19;10315540;28;20054;-25
2023/04/04 22:14:16;;;;;;;3.80;1.75;;;;;;;16.62;45.28;97047.56;10334021;28;20459;-25
2023/04/04 22:19:16;;;;;;;2.75;1.40;;;;;;;16.53;45.36;97048.28;10326082;28;20032;-25
2023/04/04 22:24:17;;;;;;;2.37;1.33;;;;;;;16.52;44.97;97049.13;10339558;28;20038;-25
2023/04/04 22:29:17;;;;;;;2.23;1.77;;;;;;;16.52;44.72;97058.41;10341406;28;20038;-26
2023/04/04 22:34:17;;;;;;;3.43;1.70;;;;;;;16.49;44.69;97046.56;10326315;28;20285;-26
2023/04/04 22:39:19;;;;;;;2.27;1.77;;;;;;;16.50;44.99;97047.41;10324991;28;20281;-25
2023/04/04 22:44:22;;;;;;;1.98;1.33;;;;;;;16.51;44.19;97041.50;10325863;28;20042;-26
2023/04/04 22:49:22;;;;;;;2.28;1.20;;;;;;;16.49;44.43;97040.66;10333875;28;20522;-25
2023/04/04 22:54:22;;;;;;;2.33;1.37;;;;;;;16.46;44.31;97033.88;10319875;28;20121;-25
2023/04/04 22:59:23;;;;;;;6.23;1.93;;;;;;;16.52;44.33;97039.00;10325934;28;20281;-25
2023/04/04 23:04:23;;;;;;;2.40;1.50;;;;;;;16.50;43.50;97020.47;10332907;28;20069;-25
2023/04/04 23:09:24;;;;;;;2.13;1.40;;;;;;;16.48;43.00;97024.66;10332263;28;20058;-26
2023/04/04 23:14:29;;;;;;;2.05;1.63;;;;;;;16.50;44.51;97022.13;10311005;28;20808;-25
2023/04/04 23:19:30;;;;;;;3.58;1.20;;;;;;;16.52;45.60;97025.53;10338690;28;20029;-25
2023/04/04 23:24:31;;;;;;;6.43;1.80;;;;;;;16.57;46.19;97029.81;10340736;28;20041;-26